createdAt,value
2022-08-17T00:00:35.006Z,97849.63
2022-08-17T00:01:51.954Z,97850.02
2022-08-17T00:03:05.725Z,97842.82
2022-08-17T00:04:14.642Z,97850.83
2022-08-17T00:05:25.139Z,97847.29
2022-08-17T00:06:33.380Z,97845.11
2022-08-17T00:07:41.170Z,97845.42
2022-08-17T00:08:52.423Z,97845.36
2022-08-17T00:09:58.931Z,97847.77
2022-08-17T00:11:08.303Z,97849.86
2022-08-17T00:12:43.431Z,97848.41
2022-08-17T00:13:47.091Z,97851.36
2022-08-17T00:14:55.375Z,97853.27
2022-08-17T00:16:05.101Z,97852.23
2022-08-17T00:17:11.307Z,97855.67
2022-08-17T00:19:00.937Z,97855.52
2022-08-17T00:19:45.171Z,97855.79
2022-08-17T00:20:52.444Z,97864.58
2022-08-17T00:22:31.360Z,97864.02
2022-08-17T00:23:29.542Z,97863.96
2022-08-17T00:24:36.930Z,97860.50
2022-08-17T00:25:46.964Z,97864.58
2022-08-17T00:26:54.040Z,97865.77
2022-08-17T00:28:02.578Z,97868.64
2022-08-17T00:29:08.679Z,97862.23
2022-08-17T00:30:17.367Z,97862.55
2022-08-17T00:31:25.038Z,97861.13
2022-08-17T00:33:15.071Z,97862.10
2022-08-17T00:33:59.412Z,97858.73
2022-08-17T00:35:09.187Z,97855.50
2022-08-17T00:36:15.741Z,97854.29
2022-08-17T00:37:22.094Z,97862.03
2022-08-17T00:38:29.077Z,97859.12
2022-08-17T00:39:37.999Z,97867.00
2022-08-17T00:40:55.843Z,97869.48
2022-08-17T00:42:17.432Z,97871.24
2022-08-17T00:43:42.231Z,97873.81
2022-08-17T00:44:51.282Z,97869.40
2022-08-17T00:45:57.844Z,97865.73
2022-08-17T00:47:04.479Z,97865.11
2022-08-17T00:48:29.882Z,97867.34
2022-08-17T00:49:40.161Z,97864.29
2022-08-17T00:51:00.024Z,97866.83
2022-08-17T00:52:12.204Z,97869.43
2022-08-17T00:53:20.901Z,97864.61
2022-08-17T00:54:41.896Z,97869.83
2022-08-17T00:55:51.548Z,97870.39
2022-08-17T00:57:00.304Z,97874.98
2022-08-17T00:58:08.415Z,97877.21
2022-08-17T00:59:15.770Z,97877.55
2022-08-17T01:00:35.140Z,97877.41
2022-08-17T01:01:46.885Z,97882.46
2022-08-17T01:02:57.669Z,97881.60
2022-08-17T01:04:06.193Z,97881.06
2022-08-17T01:05:26.499Z,97881.81
2022-08-17T01:06:37.697Z,97885.40
2022-08-17T01:07:46.406Z,97886.77
2022-08-17T01:08:57.513Z,97888.32
2022-08-17T01:10:58.953Z,97883.03
2022-08-17T01:11:41.760Z,97886.29
2022-08-17T01:12:50.189Z,97890.66
2022-08-17T01:13:57.114Z,97890.79
2022-08-17T01:15:02.994Z,97893.08
2022-08-17T01:16:27.629Z,97892.66
2022-08-17T01:17:34.271Z,97890.82
2022-08-17T01:18:40.451Z,97885.04
2022-08-17T01:19:46.851Z,97886.48
2022-08-17T01:20:54.897Z,97881.85
2022-08-17T01:22:13.570Z,97886.33
2022-08-17T01:23:21.701Z,97887.83
2022-08-17T01:24:33.702Z,97889.83
2022-08-17T01:25:43.083Z,97892.22
2022-08-17T01:26:50.997Z,97890.91
2022-08-17T01:27:58.116Z,97895.75
2022-08-17T01:29:06.371Z,97894.88
2022-08-17T01:30:58.091Z,97892.29
2022-08-17T01:31:48.357Z,97894.80
2022-08-17T01:32:56.402Z,97893.44
2022-08-17T01:34:03.893Z,97897.36
2022-08-17T01:35:11.576Z,97900.88
2022-08-17T01:36:17.431Z,97897.77
2022-08-17T01:37:29.613Z,97900.06
2022-08-17T01:38:40.068Z,97895.84
2022-08-17T01:39:53.609Z,97902.20
2022-08-17T01:41:06.032Z,97902.83
2022-08-17T01:42:25.695Z,97907.01
2022-08-17T01:43:48.318Z,97910.73
2022-08-17T01:45:00.231Z,97914.60
2022-08-17T01:46:08.891Z,97914.85
2022-08-17T01:47:14.771Z,97916.19
2022-08-17T01:48:22.203Z,97915.61
2022-08-17T01:49:29.117Z,97921.16
2022-08-17T01:50:41.600Z,97916.84
2022-08-17T01:51:49.230Z,97922.62
2022-08-17T01:53:01.677Z,97929.68
2022-08-17T01:54:12.037Z,97929.80
2022-08-17T01:55:19.190Z,97929.37
2022-08-17T01:56:30.051Z,97927.82
2022-08-17T01:57:36.978Z,97929.44
2022-08-17T01:58:45.945Z,97928.48
2022-08-17T01:59:55.356Z,97929.38
2022-08-17T02:01:03.462Z,97933.53
2022-08-17T02:02:11.883Z,97934.35
2022-08-17T02:03:37.642Z,97939.00
2022-08-17T02:04:44.534Z,97938.07
2022-08-17T02:05:50.899Z,97941.09
2022-08-17T02:06:58.003Z,97942.64
2022-08-17T02:08:05.291Z,97943.77
2022-08-17T02:09:16.866Z,97941.52
2022-08-17T02:10:24.846Z,97944.99
2022-08-17T02:11:40.895Z,97942.95
2022-08-17T02:12:48.313Z,97941.89
2022-08-17T02:14:02.485Z,97939.33
2022-08-17T02:15:13.026Z,97941.83
2022-08-17T02:16:20.850Z,97941.00
2022-08-17T02:17:28.722Z,97941.05
2022-08-17T02:18:40.333Z,97946.16
2022-08-17T02:19:48.609Z,97946.20
2022-08-17T02:20:58.712Z,97946.88
2022-08-17T02:22:06.298Z,97954.45
2022-08-17T02:23:13.693Z,97960.66
2022-08-17T02:24:59.731Z,97961.85
2022-08-17T02:25:55.109Z,97965.20
2022-08-17T02:27:02.698Z,97966.69
2022-08-17T02:28:11.896Z,97972.00
2022-08-17T02:29:18.411Z,97974.36
2022-08-17T02:30:59.778Z,97980.47
2022-08-17T02:31:56.610Z,97985.17
2022-08-17T02:33:04.029Z,97986.63
2022-08-17T02:34:13.761Z,97991.95
2022-08-17T02:35:19.770Z,97993.69
2022-08-17T02:36:30.414Z,97990.42
2022-08-17T02:37:39.110Z,97992.16
2022-08-17T02:38:47.706Z,97992.27
2022-08-17T02:39:58.535Z,97995.02
2022-08-17T02:41:05.669Z,97997.23
2022-08-17T02:42:15.263Z,97999.91
2022-08-17T02:43:22.581Z,98003.03
2022-08-17T02:44:35.447Z,98008.20
2022-08-17T02:45:50.950Z,98007.27
2022-08-17T02:47:00.084Z,98009.52
2022-08-17T02:48:07.736Z,98015.31
2022-08-17T02:49:16.535Z,98017.21
2022-08-17T02:50:25.708Z,98021.54
2022-08-17T02:51:33.290Z,98027.73
2022-08-17T02:52:48.873Z,98031.96
2022-08-17T02:54:39.078Z,98034.33
2022-08-17T02:55:41.143Z,98033.89
2022-08-17T02:56:51.067Z,98035.29
2022-08-17T02:57:58.363Z,98039.00
2022-08-17T02:59:09.959Z,98043.80
2022-08-17T03:00:19.826Z,98045.98
2022-08-17T03:01:27.502Z,98049.58
2022-08-17T03:02:40.420Z,98054.27
2022-08-17T03:03:48.615Z,98052.80
2022-08-17T03:04:57.805Z,98052.14
2022-08-17T03:06:05.207Z,98054.33
2022-08-17T03:07:11.434Z,98054.03
2022-08-17T03:08:18.710Z,98060.70
2022-08-17T03:09:24.506Z,98063.52
2022-08-17T03:10:30.815Z,98066.52
2022-08-17T03:11:36.752Z,98070.56
2022-08-17T03:12:45.175Z,98072.85
2022-08-17T03:13:52.047Z,98077.89
2022-08-17T03:14:59.397Z,98081.64
2022-08-17T03:16:05.299Z,98090.00
2022-08-17T03:17:17.166Z,98086.92
2022-08-17T03:18:25.981Z,98088.58
2022-08-17T03:19:33.080Z,98092.30
2022-08-17T03:20:39.452Z,98088.38
2022-08-17T03:21:47.353Z,98095.15
2022-08-17T03:23:05.656Z,98100.45
2022-08-17T03:24:15.835Z,98099.13
2022-08-17T03:25:36.995Z,98101.06
2022-08-17T03:26:48.506Z,98104.69
2022-08-17T03:27:58.283Z,98102.73
2022-08-17T03:29:04.936Z,98103.06
2022-08-17T03:30:14.167Z,98106.46
2022-08-17T03:31:21.948Z,98106.09
2022-08-17T03:32:28.408Z,98108.33
2022-08-17T03:33:35.939Z,98106.59
2022-08-17T03:34:44.122Z,98108.77
2022-08-17T03:35:52.359Z,98108.06
2022-08-17T03:36:59.774Z,98110.34
2022-08-17T03:38:07.759Z,98107.96
2022-08-17T03:39:13.930Z,98108.52
2022-08-17T03:40:55.026Z,98108.79
2022-08-17T03:41:53.812Z,98113.54
2022-08-17T03:43:10.062Z,98114.11
2022-08-17T03:44:16.754Z,98117.05
2022-08-17T03:45:48.180Z,98119.47
2022-08-17T03:47:19.919Z,98119.14
2022-08-17T03:48:45.769Z,98121.71
2022-08-17T03:50:16.553Z,98125.05
2022-08-17T03:51:44.202Z,98129.09
2022-08-17T03:53:10.687Z,98132.80
2022-08-17T03:54:37.371Z,98134.52
2022-08-17T03:56:05.431Z,98136.18
2022-08-17T03:57:12.408Z,98138.07
2022-08-17T03:58:18.302Z,98141.57
2022-08-17T03:59:25.002Z,98145.06
2022-08-17T04:00:36.076Z,98148.83
2022-08-17T04:01:51.229Z,98147.24
2022-08-17T04:03:01.827Z,98145.20
2022-08-17T04:04:10.625Z,98148.01
2022-08-17T04:05:17.966Z,98147.49
2022-08-17T04:06:32.245Z,98149.55
2022-08-17T04:07:39.864Z,98150.03
2022-08-17T04:08:46.823Z,98146.43
2022-08-17T04:09:55.126Z,98150.09
2022-08-17T04:11:02.239Z,98150.59
2022-08-17T04:12:19.747Z,98149.36
2022-08-17T04:13:28.512Z,98154.87
2022-08-17T04:14:52.945Z,98160.51
2022-08-17T04:16:08.511Z,98161.55
2022-08-17T04:17:31.258Z,98165.54
2022-08-17T04:18:41.232Z,98169.34
2022-08-17T04:19:53.255Z,98176.00
2022-08-17T04:21:00.379Z,98176.88
2022-08-17T04:22:06.697Z,98182.64
2022-08-17T04:23:17.619Z,98181.42
2022-08-17T04:24:24.011Z,98183.15
2022-08-17T04:25:31.079Z,98187.69
2022-08-17T04:26:52.128Z,98190.31
2022-08-17T04:28:02.321Z,98194.95
2022-08-17T04:29:08.525Z,98194.52
2022-08-17T04:30:14.560Z,98199.45
2022-08-17T04:31:20.095Z,98198.52
2022-08-17T04:33:00.470Z,98199.23
2022-08-17T04:33:52.844Z,98202.86
2022-08-17T04:35:01.401Z,98203.25
2022-08-17T04:36:09.532Z,98203.30
2022-08-17T04:37:18.363Z,98206.37
2022-08-17T04:38:28.287Z,98210.04
2022-08-17T04:39:36.103Z,98213.59
2022-08-17T04:41:09.180Z,98212.36
2022-08-17T04:42:18.681Z,98216.11
2022-08-17T04:43:31.709Z,98217.48
2022-08-17T04:44:39.627Z,98223.22
2022-08-17T04:46:07.120Z,98224.26
2022-08-17T04:47:15.716Z,98227.02
2022-08-17T04:48:23.130Z,98227.38
2022-08-17T04:49:38.477Z,98228.77
2022-08-17T04:50:48.367Z,98229.59
2022-08-17T04:51:56.240Z,98233.55
2022-08-17T04:53:05.903Z,98237.02
2022-08-17T04:54:18.704Z,98239.23
2022-08-17T04:55:25.203Z,98245.13
2022-08-17T04:56:31.311Z,98244.17
2022-08-17T04:57:41.815Z,98242.17
2022-08-17T04:58:52.672Z,98237.06
2022-08-17T04:59:59.802Z,98234.19
2022-08-17T05:01:07.188Z,98231.68
2022-08-17T05:02:14.743Z,98231.75
2022-08-17T05:03:22.443Z,98232.27
2022-08-17T05:04:35.182Z,98234.97
2022-08-17T05:05:50.678Z,98236.02
2022-08-17T05:06:59.868Z,98233.17
2022-08-17T05:08:08.763Z,98239.05
2022-08-17T05:09:15.853Z,98242.62
2022-08-17T05:10:22.584Z,98246.48
2022-08-17T05:11:31.690Z,98251.91
2022-08-17T05:12:39.852Z,98252.03
2022-08-17T05:13:51.455Z,98255.33
2022-08-17T05:15:00.416Z,98251.93
2022-08-17T05:16:07.762Z,98259.10
2022-08-17T05:17:18.978Z,98260.15
2022-08-17T05:18:26.617Z,98260.86
2022-08-17T05:19:33.271Z,98258.89
2022-08-17T05:20:40.636Z,98257.61
2022-08-17T05:21:51.094Z,98255.67
2022-08-17T05:22:59.842Z,98256.16
2022-08-17T05:24:07.124Z,98255.47
2022-08-17T05:25:40.131Z,98255.32
2022-08-17T05:26:48.614Z,98251.75
2022-08-17T05:27:57.425Z,98254.77
2022-08-17T05:29:06.455Z,98254.14
2022-08-17T05:30:13.545Z,98255.25
2022-08-17T05:31:20.062Z,98260.45
2022-08-17T05:32:39.364Z,98258.83
2022-08-17T05:33:50.417Z,98257.00
2022-08-17T05:35:01.029Z,98257.13
2022-08-17T05:36:08.882Z,98257.48
2022-08-17T05:37:37.179Z,98259.86
2022-08-17T05:38:45.034Z,98257.92
2022-08-17T05:39:52.551Z,98258.78
2022-08-17T05:40:59.843Z,98263.95
2022-08-17T05:42:06.509Z,98269.38
2022-08-17T05:43:23.263Z,98271.00
2022-08-17T05:44:29.922Z,98270.54
2022-08-17T05:45:55.839Z,98271.92
2022-08-17T05:47:04.109Z,98271.19
2022-08-17T05:48:12.428Z,98271.02
2022-08-17T05:49:20.678Z,98270.16
2022-08-17T05:50:29.957Z,98267.91
2022-08-17T05:51:59.426Z,98274.75
2022-08-17T05:53:20.695Z,98273.84
2022-08-17T05:55:01.496Z,98276.15
2022-08-17T05:56:30.560Z,98284.27
2022-08-17T05:58:20.608Z,98284.28
2022-08-17T05:59:43.745Z,98285.14
2022-08-17T06:01:03.083Z,98285.01
2022-08-17T06:02:28.657Z,98281.77
2022-08-17T06:03:45.760Z,98282.45
2022-08-17T06:05:18.414Z,98282.09
2022-08-17T06:06:31.248Z,98282.23
2022-08-17T06:07:55.763Z,98281.48
2022-08-17T06:09:13.942Z,98283.57
2022-08-17T06:10:32.293Z,98283.48
2022-08-17T06:11:59.742Z,98288.30
2022-08-17T06:13:09.937Z,98285.36
2022-08-17T06:14:49.990Z,98285.33
2022-08-17T06:16:33.814Z,98284.02
2022-08-17T06:17:34.313Z,98285.60
2022-08-17T06:18:58.258Z,98283.54
2022-08-17T06:20:09.508Z,98282.34
2022-08-17T06:21:19.658Z,98279.98
2022-08-17T06:22:39.907Z,98281.78
2022-08-17T06:24:01.422Z,98282.34
2022-08-17T06:25:10.898Z,98281.13
2022-08-17T06:26:37.249Z,98279.77
2022-08-17T06:27:57.228Z,98279.17
2022-08-17T06:29:42.770Z,98281.46
2022-08-17T06:31:01.057Z,98285.38
2022-08-17T06:32:12.647Z,98284.71
2022-08-17T06:33:29.219Z,98287.23
2022-08-17T06:34:36.622Z,98291.34
2022-08-17T06:36:09.187Z,98292.73
2022-08-17T06:37:57.765Z,98294.81
2022-08-17T06:39:41.135Z,98293.56
2022-08-17T06:41:13.459Z,98299.59
2022-08-17T06:43:04.982Z,98302.27
2022-08-17T06:44:03.451Z,98305.54
2022-08-17T06:45:19.974Z,98311.04
2022-08-17T06:46:49.337Z,98310.95
2022-08-17T06:48:18.015Z,98308.95
2022-08-17T06:50:03.080Z,98304.92
2022-08-17T06:51:34.996Z,98299.75
2022-08-17T06:53:09.665Z,98298.94
2022-08-17T06:54:39.095Z,98297.14
2022-08-17T06:56:06.492Z,98298.23
2022-08-17T06:57:19.770Z,98299.48
2022-08-17T06:58:29.581Z,98299.32
2022-08-17T07:00:14.573Z,98299.45
2022-08-17T07:01:25.803Z,98306.64
2022-08-17T07:02:58.966Z,98310.02
2022-08-17T07:04:21.934Z,98308.75
2022-08-17T07:06:08.624Z,98309.95
2022-08-17T07:07:32.878Z,98309.33
2022-08-17T07:08:58.085Z,98307.48
2022-08-17T07:10:05.451Z,98304.80
2022-08-17T07:11:43.460Z,98304.41
2022-08-17T07:12:52.488Z,98300.41
2022-08-17T07:14:06.119Z,98297.52
2022-08-17T07:15:22.949Z,98293.53
2022-08-17T07:16:33.607Z,98290.81
2022-08-17T07:17:47.821Z,98283.84
2022-08-17T07:18:55.819Z,98281.27
2022-08-17T07:20:10.175Z,98277.02
2022-08-17T07:21:45.068Z,98273.31
2022-08-17T07:23:02.417Z,98270.54
2022-08-17T07:25:02.594Z,98273.31
2022-08-17T07:26:09.910Z,98273.33
2022-08-17T07:27:31.801Z,98274.36
2022-08-17T07:28:38.528Z,98274.90
2022-08-17T07:29:51.225Z,98277.86
2022-08-17T07:31:00.426Z,98281.63
2022-08-17T07:32:07.874Z,98280.70
2022-08-17T07:33:20.703Z,98282.09
2022-08-17T07:34:26.544Z,98277.35
2022-08-17T07:35:45.307Z,98279.46
2022-08-17T07:37:05.803Z,98279.46
2022-08-17T07:38:25.603Z,98280.08
2022-08-17T07:39:34.676Z,98280.67
2022-08-17T07:41:08.971Z,98281.53
2022-08-17T07:42:15.435Z,98281.31
2022-08-17T07:43:42.663Z,98282.02
2022-08-17T07:44:55.093Z,98285.08
2022-08-17T07:46:46.977Z,98285.02
2022-08-17T07:48:12.391Z,98284.80
2022-08-17T07:49:36.550Z,98289.20
2022-08-17T07:50:43.529Z,98287.73
2022-08-17T07:52:00.000Z,98289.04
2022-08-17T07:53:24.746Z,98290.34
2022-08-17T07:54:37.287Z,98291.59
2022-08-17T07:55:43.665Z,98290.23
2022-08-17T07:56:53.577Z,98289.67
2022-08-17T07:58:00.798Z,98281.55
2022-08-17T07:59:27.223Z,98278.83
2022-08-17T08:00:40.044Z,98274.34
2022-08-17T08:02:07.726Z,98272.05
2022-08-17T08:03:32.979Z,98273.30
2022-08-17T08:05:02.401Z,98273.39
2022-08-17T08:06:22.395Z,98275.08
2022-08-17T08:07:32.435Z,98275.45
2022-08-17T08:08:44.539Z,98278.88
2022-08-17T08:10:15.235Z,98276.41
2022-08-17T08:11:35.656Z,98273.45
2022-08-17T08:12:45.589Z,98273.75
2022-08-17T08:13:52.793Z,98270.92
2022-08-17T08:15:00.839Z,98270.48
2022-08-17T08:16:28.005Z,98270.58
2022-08-17T08:17:37.380Z,98272.00
2022-08-17T08:18:54.258Z,98269.61
2022-08-17T08:20:34.827Z,98274.73
2022-08-17T08:22:12.724Z,98273.90
2022-08-17T08:23:42.535Z,98273.55
2022-08-17T08:25:06.244Z,98274.15
2022-08-17T08:26:45.973Z,98276.80
2022-08-17T08:28:23.261Z,98275.96
2022-08-17T08:29:29.898Z,98279.17
2022-08-17T08:30:44.726Z,98277.67
2022-08-17T08:32:21.320Z,98279.98
2022-08-17T08:33:33.074Z,98282.55
2022-08-17T08:35:10.629Z,98278.72
2022-08-17T08:36:56.938Z,98280.93
2022-08-17T08:38:11.254Z,98282.06
2022-08-17T08:39:28.839Z,98283.48
2022-08-17T08:41:03.032Z,98285.10
2022-08-17T08:42:39.167Z,98283.19
2022-08-17T08:44:04.581Z,98282.86
2022-08-17T08:45:42.382Z,98280.61
2022-08-17T08:46:55.365Z,98280.88
2022-08-17T08:48:52.835Z,98282.77
2022-08-17T08:50:05.707Z,98281.37
2022-08-17T08:51:24.530Z,98281.98
2022-08-17T08:52:49.134Z,98283.77
2022-08-17T08:54:14.924Z,98281.77
2022-08-17T08:55:45.434Z,98284.28
2022-08-17T08:57:29.124Z,98285.05
2022-08-17T08:58:41.715Z,98285.65
2022-08-17T09:00:16.263Z,98289.95
2022-08-17T09:01:53.045Z,98288.98
2022-08-17T09:03:18.441Z,98292.32
2022-08-17T09:05:13.822Z,98292.06
2022-08-17T09:06:37.540Z,98296.96
2022-08-17T09:08:17.255Z,98299.35
2022-08-17T09:09:50.325Z,98303.34
2022-08-17T09:11:05.468Z,98307.20
2022-08-17T09:12:48.914Z,98306.02
2022-08-17T09:13:55.645Z,98304.34
2022-08-17T09:15:18.617Z,98302.92
2022-08-17T09:16:43.836Z,98298.52
2022-08-17T09:19:02.199Z,98301.79
2022-08-17T09:20:03.272Z,98300.00
2022-08-17T09:21:33.849Z,98300.86
2022-08-17T09:22:43.918Z,98301.95
2022-08-17T09:24:12.232Z,98304.45
2022-08-17T09:25:22.295Z,98305.17
2022-08-17T09:26:31.513Z,98306.31
2022-08-17T09:27:52.910Z,98305.67
2022-08-17T09:29:10.535Z,98303.48
2022-08-17T09:30:16.479Z,98305.89
2022-08-17T09:31:31.269Z,98303.89
2022-08-17T09:32:55.694Z,98306.84
2022-08-17T09:34:06.315Z,98305.30
2022-08-17T09:35:18.615Z,98305.64
2022-08-17T09:36:34.627Z,98305.92
2022-08-17T09:37:56.160Z,98305.11
2022-08-17T09:39:11.137Z,98301.46
2022-08-17T09:40:22.976Z,98307.19
2022-08-17T09:41:48.966Z,98308.07
2022-08-17T09:43:26.293Z,98307.96
2022-08-17T09:44:44.819Z,98307.70
2022-08-17T09:45:54.915Z,98313.95
2022-08-17T09:47:27.544Z,98310.54
2022-08-17T09:48:42.509Z,98313.70
2022-08-17T09:49:50.027Z,98317.85
2022-08-17T09:51:07.493Z,98318.18
2022-08-17T09:52:30.905Z,98315.42
2022-08-17T09:53:39.688Z,98313.29
2022-08-17T09:54:46.135Z,98313.63
2022-08-17T09:56:16.452Z,98315.63
2022-08-17T09:57:30.220Z,98315.02
2022-08-17T09:59:17.919Z,98314.18
2022-08-17T10:00:28.131Z,98313.42
2022-08-17T10:01:51.128Z,98311.23
2022-08-17T10:03:10.548Z,98314.23
2022-08-17T10:04:53.685Z,98313.23
2022-08-17T10:06:28.763Z,98310.22
2022-08-17T10:07:42.565Z,98310.33
2022-08-17T10:09:21.039Z,98306.14
2022-08-17T10:10:37.016Z,98309.25
2022-08-17T10:12:17.111Z,98307.55
2022-08-17T10:13:37.803Z,98307.32
2022-08-17T10:15:07.719Z,98309.10
2022-08-17T10:16:58.062Z,98311.91
2022-08-17T10:18:16.794Z,98312.60
2022-08-17T10:19:31.991Z,98315.11
2022-08-17T10:21:21.765Z,98315.54
2022-08-17T10:22:53.203Z,98311.40
2022-08-17T10:25:21.598Z,98311.42
2022-08-17T10:26:25.657Z,98312.23
2022-08-17T10:27:56.700Z,98311.46
2022-08-17T10:29:13.012Z,98309.27
2022-08-17T10:30:19.708Z,98308.44
2022-08-17T10:31:36.265Z,98305.04
2022-08-17T10:32:57.057Z,98307.98
2022-08-17T10:34:42.097Z,98310.41
2022-08-17T10:36:08.712Z,98309.85
2022-08-17T10:37:50.947Z,98312.66
2022-08-17T10:39:32.369Z,98311.92
2022-08-17T10:40:54.150Z,98312.71
2022-08-17T10:42:03.586Z,98314.55
2022-08-17T10:43:30.395Z,98311.27
2022-08-17T10:45:20.167Z,98312.75
2022-08-17T10:47:02.672Z,98310.55
2022-08-17T10:48:13.346Z,98308.60
2022-08-17T10:49:19.465Z,98309.73
2022-08-17T10:51:02.724Z,98308.81
2022-08-17T10:52:30.948Z,98308.90
2022-08-17T10:53:36.796Z,98306.12
2022-08-17T10:55:07.746Z,98303.70
2022-08-17T10:56:17.989Z,98302.48
2022-08-17T10:57:32.843Z,98300.64
2022-08-17T10:58:55.775Z,98302.27
2022-08-17T11:00:27.452Z,98303.04
2022-08-17T11:02:01.650Z,98305.75
2022-08-17T11:03:25.909Z,98306.19
2022-08-17T11:04:37.606Z,98306.40
2022-08-17T11:06:13.123Z,98309.59
2022-08-17T11:07:31.286Z,98310.84
2022-08-17T11:08:58.048Z,98310.14
2022-08-17T11:10:10.481Z,98314.28
2022-08-17T11:11:37.138Z,98317.34
2022-08-17T11:13:05.697Z,98316.32
2022-08-17T11:14:55.756Z,98317.67
2022-08-17T11:16:25.816Z,98315.77
2022-08-17T11:17:53.690Z,98313.73
2022-08-17T11:19:36.282Z,98312.13
2022-08-17T11:20:55.981Z,98313.55
2022-08-17T11:22:32.732Z,98315.64
2022-08-17T11:24:07.433Z,98316.00
2022-08-17T11:25:35.871Z,98315.58
2022-08-17T11:26:48.517Z,98316.02
2022-08-17T11:28:06.722Z,98319.55
2022-08-17T11:29:26.234Z,98317.54
2022-08-17T11:30:45.213Z,98316.85
2022-08-17T11:32:03.518Z,98316.60
2022-08-17T11:33:33.940Z,98314.32
2022-08-17T11:34:45.262Z,98314.67
2022-08-17T11:35:52.501Z,98310.80
2022-08-17T11:37:26.659Z,98315.23
2022-08-17T11:39:00.520Z,98316.27
2022-08-17T11:40:16.212Z,98318.70
2022-08-17T11:41:34.226Z,98318.86
2022-08-17T11:43:11.969Z,98317.34
2022-08-17T11:44:55.198Z,98317.56
2022-08-17T11:46:51.702Z,98321.13
2022-08-17T11:48:44.971Z,98322.79
2022-08-17T11:50:37.615Z,98321.86
2022-08-17T11:51:56.547Z,98324.45
2022-08-17T11:53:05.449Z,98320.73
2022-08-17T11:54:34.610Z,98320.08
2022-08-17T11:55:44.851Z,98318.74
2022-08-17T11:56:53.673Z,98318.02
2022-08-17T11:58:03.424Z,98314.55
2022-08-17T11:59:44.336Z,98314.20
2022-08-17T12:00:58.875Z,98314.60
2022-08-17T12:02:32.353Z,98311.17
2022-08-17T12:03:54.190Z,98310.34
2022-08-17T12:05:24.079Z,98310.83
2022-08-17T12:06:41.621Z,98308.85
2022-08-17T12:08:06.305Z,98310.91
2022-08-17T12:09:21.452Z,98307.27
2022-08-17T12:10:33.151Z,98307.70
2022-08-17T12:11:55.433Z,98309.04
2022-08-17T12:13:15.971Z,98312.00
2022-08-17T12:14:45.429Z,98314.59
2022-08-17T12:15:56.985Z,98315.66
2022-08-17T12:17:09.133Z,98316.91
2022-08-17T12:18:32.670Z,98316.59
2022-08-17T12:19:39.690Z,98318.75
2022-08-17T12:20:45.583Z,98317.30
2022-08-17T12:22:11.010Z,98322.32
2022-08-17T12:23:37.849Z,98320.34
2022-08-17T12:24:57.659Z,98321.36
2022-08-17T12:26:24.389Z,98323.67
2022-08-17T12:28:04.398Z,98323.92
2022-08-17T12:29:18.469Z,98328.34
2022-08-17T12:30:41.378Z,98330.66
2022-08-17T12:31:49.985Z,98332.54
2022-08-17T12:32:56.077Z,98330.20
2022-08-17T12:34:04.863Z,98329.36
2022-08-17T12:35:33.758Z,98329.42
2022-08-17T12:36:41.975Z,98330.42
2022-08-17T12:37:50.240Z,98330.05
2022-08-17T12:39:13.705Z,98326.13
2022-08-17T12:40:29.976Z,98326.53
2022-08-17T12:41:41.393Z,98327.20
2022-08-17T12:42:59.792Z,98330.93
2022-08-17T12:44:50.437Z,98331.30
2022-08-17T12:46:00.262Z,98331.11
2022-08-17T12:47:22.194Z,98333.86
2022-08-17T12:48:35.054Z,98334.67
2022-08-17T12:49:43.336Z,98333.91
2022-08-17T12:50:50.024Z,98337.33
2022-08-17T12:52:16.723Z,98339.52
2022-08-17T12:53:27.724Z,98339.36
2022-08-17T12:55:07.619Z,98341.44
2022-08-17T12:56:13.903Z,98345.50
2022-08-17T12:57:23.443Z,98350.77
2022-08-17T12:58:37.060Z,98353.42
2022-08-17T12:59:59.292Z,98356.27
2022-08-17T13:01:10.053Z,98355.28
2022-08-17T13:02:56.961Z,98353.94
2022-08-17T13:04:04.253Z,98355.38
2022-08-17T13:05:35.696Z,98356.65
2022-08-17T13:06:47.785Z,98357.23
2022-08-17T13:07:55.632Z,98357.70
2022-08-17T13:09:40.388Z,98359.67
2022-08-17T13:10:56.222Z,98358.57
2022-08-17T13:12:03.440Z,98359.17
2022-08-17T13:13:28.390Z,98356.67
2022-08-17T13:14:34.658Z,98357.09
2022-08-17T13:15:52.099Z,98359.59
2022-08-17T13:17:01.622Z,98358.94
2022-08-17T13:18:10.002Z,98360.24
2022-08-17T13:19:39.804Z,98361.63
2022-08-17T13:21:00.368Z,98359.67
2022-08-17T13:22:11.981Z,98360.33
2022-08-17T13:23:22.592Z,98360.23
2022-08-17T13:24:37.932Z,98359.43
2022-08-17T13:26:05.824Z,98361.89
2022-08-17T13:27:15.943Z,98360.89
2022-08-17T13:28:29.786Z,98360.41
2022-08-17T13:29:51.613Z,98359.70
2022-08-17T13:31:51.864Z,98364.15
2022-08-17T13:33:04.892Z,98363.95
2022-08-17T13:34:34.816Z,98364.87
2022-08-17T13:35:52.163Z,98369.69
2022-08-17T13:37:26.870Z,98371.56
2022-08-17T13:38:52.102Z,98372.33
2022-08-17T13:40:13.415Z,98376.48
2022-08-17T13:41:37.115Z,98372.24
2022-08-17T13:42:54.278Z,98376.45
2022-08-17T13:44:02.496Z,98377.19
2022-08-17T13:45:40.868Z,98378.20
2022-08-17T13:46:52.500Z,98379.33
2022-08-17T13:48:12.507Z,98380.76
2022-08-17T13:49:20.867Z,98381.54
2022-08-17T13:50:27.223Z,98378.77
2022-08-17T13:52:03.169Z,98381.80
2022-08-17T13:53:19.112Z,98384.77
2022-08-17T13:54:25.109Z,98385.88
2022-08-17T13:55:31.831Z,98389.71
2022-08-17T13:57:01.720Z,98386.55
2022-08-17T13:58:07.624Z,98386.95
2022-08-17T13:59:14.989Z,98392.49
2022-08-17T14:00:31.555Z,98394.42
2022-08-17T14:01:53.552Z,98396.52
2022-08-17T14:03:02.391Z,98395.21
2022-08-17T14:04:12.734Z,98397.79
2022-08-17T14:05:18.731Z,98396.71
2022-08-17T14:06:52.236Z,98396.95
2022-08-17T14:08:06.728Z,98395.16
2022-08-17T14:09:15.622Z,98394.36
2022-08-17T14:10:22.353Z,98400.15
2022-08-17T14:11:29.947Z,98399.48
2022-08-17T14:12:37.126Z,98396.70
2022-08-17T14:13:44.688Z,98400.06
2022-08-17T14:14:51.208Z,98401.25
2022-08-17T14:15:57.688Z,98401.92
2022-08-17T14:17:03.927Z,98403.16
2022-08-17T14:18:09.754Z,98402.34
2022-08-17T14:19:16.440Z,98402.30
2022-08-17T14:20:23.022Z,98402.91
2022-08-17T14:21:30.144Z,98400.92
2022-08-17T14:22:38.259Z,98400.98
2022-08-17T14:23:54.281Z,98397.26
2022-08-17T14:25:04.451Z,98396.81
2022-08-17T14:26:17.117Z,98396.27
2022-08-17T14:27:28.481Z,98395.79
2022-08-17T14:28:36.386Z,98393.59
2022-08-17T14:29:42.874Z,98395.20
2022-08-17T14:30:49.091Z,98396.80
2022-08-17T14:31:55.215Z,98398.68
2022-08-17T14:33:02.990Z,98402.35
2022-08-17T14:34:10.949Z,98401.58
2022-08-17T14:35:17.730Z,98400.38
2022-08-17T14:36:25.040Z,98403.13
2022-08-17T14:37:30.827Z,98404.53
2022-08-17T14:38:38.917Z,98401.44
2022-08-17T14:39:46.859Z,98402.28
2022-08-17T14:40:54.209Z,98404.56
2022-08-17T14:42:02.146Z,98403.43
2022-08-17T14:43:08.689Z,98404.10
2022-08-17T14:44:17.577Z,98403.67
2022-08-17T14:45:30.421Z,98403.37
2022-08-17T14:46:45.195Z,98403.55
2022-08-17T14:47:53.343Z,98404.66
2022-08-17T14:49:03.580Z,98406.55
2022-08-17T14:50:14.362Z,98404.23
2022-08-17T14:51:27.001Z,98404.10
2022-08-17T14:52:34.712Z,98405.93
2022-08-17T14:53:47.157Z,98401.67
2022-08-17T14:54:54.701Z,98407.36
2022-08-17T14:56:02.927Z,98407.33
2022-08-17T14:57:26.197Z,98408.06
2022-08-17T14:58:40.057Z,98410.47
2022-08-17T14:59:54.614Z,98410.88
2022-08-17T15:01:04.101Z,98409.85
2022-08-17T15:02:11.407Z,98405.62
2022-08-17T15:03:18.518Z,98404.61
2022-08-17T15:04:25.501Z,98401.47